sensor_id;sensor_type;location;lat;lon;timestamp;temperature;humidity
22974;DHT22;11653;50.848;4.584;2023-04-12T00:01:09;9.50;99.90
22974;DHT22;11653;50.848;4.584;2023-04-12T00:03:34;9.60;99.90
22974;DHT22;11653;50.848;4.584;2023-04-12T00:06:00;9.60;99.90
22974;DHT22;11653;50.848;4.584;2023-04-12T00:08:28;9.50;99.90
22974;DHT22;11653;50.848;4.584;2023-04-12T00:11:03;9.50;99.90
22974;DHT22;11653;50.848;4.584;2023-04-12T00:13:29;9.40;99.90
22974;DHT22;11653;50.848;4.584;2023-04-12T00:15:55;9.40;99.90
22974;DHT22;11653;50.848;4.584;2023-04-12T00:18:20;9.50;99.90
22974;DHT22;11653;50.848;4.584;2023-04-12T00:20:53;9.40;99.90
22974;DHT22;11653;50.848;4.584;2023-04-12T00:23:20;9.60;99.90
22974;DHT22;11653;50.848;4.584;2023-04-12T00:25:45;9.70;99.90
22974;DHT22;11653;50.848;4.584;2023-04-12T00:28:11;9.80;99.90
22974;DHT22;11653;50.848;4.584;2023-04-12T00:30:37;9.70;99.90
22974;DHT22;11653;50.848;4.584;2023-04-12T00:33:03;9.60;99.90
22974;DHT22;11653;50.848;4.584;2023-04-12T00:35:29;9.60;99.90
22974;DHT22;11653;50.848;4.584;2023-04-12T00:37:54;9.70;99.90
22974;DHT22;11653;50.848;4.584;2023-04-12T00:40:20;9.80;99.90
22974;DHT22;11653;50.848;4.584;2023-04-12T00:42:46;9.90;99.90
22974;DHT22;11653;50.848;4.584;2023-04-12T00:45:13;10.00;99.90
22974;DHT22;11653;50.848;4.584;2023-04-12T00:47:39;9.70;99.90
22974;DHT22;11653;50.848;4.584;2023-04-12T00:50:07;9.60;99.90
22974;DHT22;11653;50.848;4.584;2023-04-12T00:52:34;9.70;99.90
22974;DHT22;11653;50.848;4.584;2023-04-12T00:55:03;9.80;99.90
22974;DHT22;11653;50.848;4.584;2023-04-12T00:57:34;9.70;99.90
22974;DHT22;11653;50.848;4.584;2023-04-12T01:00:02;9.50;99.90
22974;DHT22;11653;50.848;4.584;2023-04-12T01:02:29;9.60;99.90
22974;DHT22;11653;50.848;4.584;2023-04-12T01:04:55;9.60;99.90
22974;DHT22;11653;50.848;4.584;2023-04-12T01:11:00;9.70;99.90
22974;DHT22;11653;50.848;4.584;2023-04-12T01:13:35;9.80;99.90
22974;DHT22;11653;50.848;4.584;2023-04-12T01:18:58;9.70;99.90
22974;DHT22;11653;50.848;4.584;2023-04-12T01:22:22;9.60;99.90
22974;DHT22;11653;50.848;4.584;2023-04-12T01:24:42;9.60;99.90
22974;DHT22;11653;50.848;4.584;2023-04-12T01:30:07;9.50;99.90
22974;DHT22;11653;50.848;4.584;2023-04-12T01:32:38;9.50;99.90
22974;DHT22;11653;50.848;4.584;2023-04-12T01:35:07;9.60;99.90
22974;DHT22;11653;50.848;4.584;2023-04-12T01:37:34;9.60;99.90
22974;DHT22;11653;50.848;4.584;2023-04-12T01:40:01;9.40;99.90
22974;DHT22;11653;50.848;4.584;2023-04-12T01:42:26;9.40;99.90
22974;DHT22;11653;50.848;4.584;2023-04-12T01:44:52;9.30;99.90
22974;DHT22;11653;50.848;4.584;2023-04-12T01:47:18;9.40;99.90
22974;DHT22;11653;50.848;4.584;2023-04-12T01:50:01;9.30;99.90
22974;DHT22;11653;50.848;4.584;2023-04-12T01:52:31;9.40;99.90
22974;DHT22;11653;50.848;4.584;2023-04-12T01:55:01;9.40;99.90
22974;DHT22;11653;50.848;4.584;2023-04-12T01:57:28;9.30;99.90
22974;DHT22;11653;50.848;4.584;2023-04-12T01:59:55;9.40;99.90
22974;DHT22;11653;50.848;4.584;2023-04-12T02:02:23;9.30;99.90
22974;DHT22;11653;50.848;4.584;2023-04-12T02:04:50;9.40;99.90
22974;DHT22;11653;50.848;4.584;2023-04-12T02:07:17;9.40;99.90
22974;DHT22;11653;50.848;4.584;2023-04-12T02:09:45;9.40;99.90
22974;DHT22;11653;50.848;4.584;2023-04-12T02:12:10;9.50;99.90
22974;DHT22;11653;50.848;4.584;2023-04-12T02:14:37;9.50;99.90
22974;DHT22;11653;50.848;4.584;2023-04-12T02:17:03;9.50;99.90
22974;DHT22;11653;50.848;4.584;2023-04-12T02:19:29;9.50;99.90
22974;DHT22;11653;50.848;4.584;2023-04-12T02:21:55;9.50;99.90
22974;DHT22;11653;50.848;4.584;2023-04-12T02:24:22;9.60;99.90
22974;DHT22;11653;50.848;4.584;2023-04-12T02:26:47;9.60;99.90
22974;DHT22;11653;50.848;4.584;2023-04-12T02:29:16;9.70;99.90
22974;DHT22;11653;50.848;4.584;2023-04-12T02:31:42;9.70;99.90
22974;DHT22;11653;50.848;4.584;2023-04-12T02:34:07;9.60;99.90
22974;DHT22;11653;50.848;4.584;2023-04-12T02:36:33;9.70;99.90
22974;DHT22;11653;50.848;4.584;2023-04-12T02:39:02;9.80;99.90
22974;DHT22;11653;50.848;4.584;2023-04-12T02:41:28;9.90;99.90
22974;DHT22;11653;50.848;4.584;2023-04-12T02:43:54;9.90;99.90
22974;DHT22;11653;50.848;4.584;2023-04-12T02:46:22;9.90;99.90
22974;DHT22;11653;50.848;4.584;2023-04-12T02:48:49;9.90;99.90
22974;DHT22;11653;50.848;4.584;2023-04-12T02:51:14;9.80;99.90
22974;DHT22;11653;50.848;4.584;2023-04-12T02:53:40;9.80;99.90
22974;DHT22;11653;50.848;4.584;2023-04-12T02:56:06;9.70;99.90
22974;DHT22;11653;50.848;4.584;2023-04-12T02:58:33;9.80;99.90
22974;DHT22;11653;50.848;4.584;2023-04-12T03:00:59;9.80;99.90
22974;DHT22;11653;50.848;4.584;2023-04-12T03:03:26;9.80;99.90
22974;DHT22;11653;50.848;4.584;2023-04-12T03:05:56;9.70;99.90
22974;DHT22;11653;50.848;4.584;2023-04-12T03:08:22;9.70;99.90
22974;DHT22;11653;50.848;4.584;2023-04-12T03:10:48;9.60;99.90
22974;DHT22;11653;50.848;4.584;2023-04-12T03:13:14;9.70;99.90
22974;DHT22;11653;50.848;4.584;2023-04-12T03:15:40;9.70;99.90
22974;DHT22;11653;50.848;4.584;2023-04-12T03:18:08;9.80;99.90
22974;DHT22;11653;50.848;4.584;2023-04-12T03:20:33;9.80;99.90
22974;DHT22;11653;50.848;4.584;2023-04-12T03:22:59;9.80;99.90
22974;DHT22;11653;50.848;4.584;2023-04-12T03:25:25;9.90;99.90
22974;DHT22;11653;50.848;4.584;2023-04-12T03:27:51;9.90;99.90
22974;DHT22;11653;50.848;4.584;2023-04-12T03:30:17;10.00;99.90
22974;DHT22;11653;50.848;4.584;2023-04-12T03:32:43;10.00;99.90
22974;DHT22;11653;50.848;4.584;2023-04-12T03:35:10;10.00;99.90
22974;DHT22;11653;50.848;4.584;2023-04-12T03:37:39;9.90;99.90
22974;DHT22;11653;50.848;4.584;2023-04-12T03:40:05;10.00;99.90
22974;DHT22;11653;50.848;4.584;2023-04-12T03:42:31;10.00;99.90
22974;DHT22;11653;50.848;4.584;2023-04-12T03:44:57;10.00;99.90
22974;DHT22;11653;50.848;4.584;2023-04-12T03:47:23;9.90;99.90
22974;DHT22;11653;50.848;4.584;2023-04-12T03:49:48;10.00;99.90
22974;DHT22;11653;50.848;4.584;2023-04-12T03:52:14;10.00;99.90
22974;DHT22;11653;50.848;4.584;2023-04-12T03:54:40;10.10;99.90
22974;DHT22;11653;50.848;4.584;2023-04-12T03:57:06;10.20;99.90
22974;DHT22;11653;50.848;4.584;2023-04-12T03:59:31;10.30;99.90
22974;DHT22;11653;50.848;4.584;2023-04-12T04:01:58;10.30;99.90
22974;DHT22;11653;50.848;4.584;2023-04-12T04:07:50;10.30;99.90
22974;DHT22;11653;50.848;4.584;2023-04-12T04:10:16;10.10;99.90
22974;DHT22;11653;50.848;4.584;2023-04-12T04:12:41;9.90;99.90
22974;DHT22;11653;50.848;4.584;2023-04-12T04:15:07;10.00;99.90
22974;DHT22;11653;50.848;4.584;2023-04-12T04:17:33;10.00;99.90
22974;DHT22;11653;50.848;4.584;2023-04-12T04:19:59;10.00;99.90
22974;DHT22;11653;50.848;4.584;2023-04-12T04:22:24;10.10;99.90
22974;DHT22;11653;50.848;4.584;2023-04-12T04:24:50;10.20;99.90
22974;DHT22;11653;50.848;4.584;2023-04-12T04:27:16;10.20;99.90
22974;DHT22;11653;50.848;4.584;2023-04-12T04:29:41;10.10;99.90
22974;DHT22;11653;50.848;4.584;2023-04-12T04:32:11;10.20;99.90
22974;DHT22;11653;50.848;4.584;2023-04-12T04:34:37;10.20;99.90
22974;DHT22;11653;50.848;4.584;2023-04-12T04:37:02;10.30;99.90
22974;DHT22;11653;50.848;4.584;2023-04-12T04:39:28;10.30;99.90
22974;DHT22;11653;50.848;4.584;2023-04-12T04:41:54;10.30;99.90
22974;DHT22;11653;50.848;4.584;2023-04-12T04:44:19;10.30;99.90
22974;DHT22;11653;50.848;4.584;2023-04-12T04:46:46;10.30;99.90
22974;DHT22;11653;50.848;4.584;2023-04-12T04:49:13;10.40;99.90
22974;DHT22;11653;50.848;4.584;2023-04-12T04:51:38;10.40;99.90
22974;DHT22;11653;50.848;4.584;2023-04-12T04:54:04;10.30;99.90
22974;DHT22;11653;50.848;4.584;2023-04-12T04:56:30;10.40;99.90
22974;DHT22;11653;50.848;4.584;2023-04-12T04:58:57;10.40;99.90
22974;DHT22;11653;50.848;4.584;2023-04-12T05:01:23;10.40;99.90
22974;DHT22;11653;50.848;4.584;2023-04-12T05:03:52;10.40;99.90
22974;DHT22;11653;50.848;4.584;2023-04-12T05:06:20;10.50;99.90
22974;DHT22;11653;50.848;4.584;2023-04-12T05:08:45;10.40;99.90
22974;DHT22;11653;50.848;4.584;2023-04-12T05:11:11;10.40;99.90
22974;DHT22;11653;50.848;4.584;2023-04-12T05:13:36;10.50;99.90
22974;DHT22;11653;50.848;4.584;2023-04-12T05:16:06;10.50;99.90
22974;DHT22;11653;50.848;4.584;2023-04-12T05:18:32;10.50;99.90
22974;DHT22;11653;50.848;4.584;2023-04-12T05:21:03;10.60;99.90
22974;DHT22;11653;50.848;4.584;2023-04-12T05:23:34;10.60;99.90
22974;DHT22;11653;50.848;4.584;2023-04-12T05:26:00;10.70;99.90
22974;DHT22;11653;50.848;4.584;2023-04-12T05:28:26;10.70;99.90
22974;DHT22;11653;50.848;4.584;2023-04-12T05:30:51;10.70;99.90
22974;DHT22;11653;50.848;4.584;2023-04-12T05:33:17;10.80;99.90
22974;DHT22;11653;50.848;4.584;2023-04-12T05:35:42;10.80;99.90
22974;DHT22;11653;50.848;4.584;2023-04-12T05:38:08;10.70;99.90
22974;DHT22;11653;50.848;4.584;2023-04-12T05:40:34;10.60;99.90
22974;DHT22;11653;50.848;4.584;2023-04-12T05:43:01;10.50;99.90
22974;DHT22;11653;50.848;4.584;2023-04-12T05:45:27;10.40;99.90
22974;DHT22;11653;50.848;4.584;2023-04-12T05:47:54;10.40;99.90
22974;DHT22;11653;50.848;4.584;2023-04-12T05:50:20;10.40;99.90
22974;DHT22;11653;50.848;4.584;2023-04-12T05:52:46;10.40;99.90
22974;DHT22;11653;50.848;4.584;2023-04-12T05:55:17;10.50;99.90
22974;DHT22;11653;50.848;4.584;2023-04-12T05:57:44;10.50;99.90
22974;DHT22;11653;50.848;4.584;2023-04-12T06:00:11;10.50;99.90
22974;DHT22;11653;50.848;4.584;2023-04-12T06:02:47;10.50;99.90
22974;DHT22;11653;50.848;4.584;2023-04-12T06:05:15;10.50;99.90
22974;DHT22;11653;50.848;4.584;2023-04-12T06:07:42;10.50;99.90
22974;DHT22;11653;50.848;4.584;2023-04-12T06:10:12;10.50;99.90
22974;DHT22;11653;50.848;4.584;2023-04-12T06:12:38;10.50;99.90
22974;DHT22;11653;50.848;4.584;2023-04-12T06:15:04;10.50;99.90
22974;DHT22;11653;50.848;4.584;2023-04-12T06:17:30;10.50;99.90
22974;DHT22;11653;50.848;4.584;2023-04-12T06:19:56;10.40;99.90
22974;DHT22;11653;50.848;4.584;2023-04-12T06:22:22;10.40;99.90
22974;DHT22;11653;50.848;4.584;2023-04-12T06:24:47;10.40;99.90
22974;DHT22;11653;50.848;4.584;2023-04-12T06:27:13;10.40;99.90
22974;DHT22;11653;50.848;4.584;2023-04-12T06:29:38;10.50;99.90
22974;DHT22;11653;50.848;4.584;2023-04-12T06:32:04;10.50;99.90
22974;DHT22;11653;50.848;4.584;2023-04-12T06:34:30;10.60;99.90
22974;DHT22;11653;50.848;4.584;2023-04-12T06:36:56;10.60;99.90
22974;DHT22;11653;50.848;4.584;2023-04-12T06:39:22;10.50;99.90
22974;DHT22;11653;50.848;4.584;2023-04-12T06:41:47;10.40;99.90
22974;DHT22;11653;50.848;4.584;2023-04-12T06:44:15;10.40;99.90
22974;DHT22;11653;50.848;4.584;2023-04-12T06:46:41;10.30;99.90
22974;DHT22;11653;50.848;4.584;2023-04-12T06:49:06;10.30;99.90
22974;DHT22;11653;50.848;4.584;2023-04-12T06:51:32;10.30;99.90
22974;DHT22;11653;50.848;4.584;2023-04-12T06:54:00;10.30;99.90
22974;DHT22;11653;50.848;4.584;2023-04-12T06:56:25;10.40;99.90
22974;DHT22;11653;50.848;4.584;2023-04-12T06:58:51;10.40;99.90
22974;DHT22;11653;50.848;4.584;2023-04-12T07:01:17;10.50;99.90
22974;DHT22;11653;50.848;4.584;2023-04-12T07:03:42;10.40;99.90
22974;DHT22;11653;50.848;4.584;2023-04-12T07:06:10;10.50;99.90
22974;DHT22;11653;50.848;4.584;2023-04-12T07:08:35;10.40;99.90
22974;DHT22;11653;50.848;4.584;2023-04-12T07:11:02;10.40;99.90
22974;DHT22;11653;50.848;4.584;2023-04-12T07:13:28;10.40;99.90
22974;DHT22;11653;50.848;4.584;2023-04-12T07:15:54;10.30;99.90
22974;DHT22;11653;50.848;4.584;2023-04-12T07:18:20;10.30;99.90
22974;DHT22;11653;50.848;4.584;2023-04-12T07:20:47;10.40;99.90
22974;DHT22;11653;50.848;4.584;2023-04-12T07:23:14;10.50;99.90
22974;DHT22;11653;50.848;4.584;2023-04-12T07:25:41;10.50;99.90
22974;DHT22;11653;50.848;4.584;2023-04-12T07:28:06;10.60;99.90
22974;DHT22;11653;50.848;4.584;2023-04-12T07:30:32;10.70;99.90
22974;DHT22;11653;50.848;4.584;2023-04-12T07:32:58;10.70;99.90
22974;DHT22;11653;50.848;4.584;2023-04-12T07:35:26;10.60;99.90
22974;DHT22;11653;50.848;4.584;2023-04-12T07:37:52;10.60;99.90
22974;DHT22;11653;50.848;4.584;2023-04-12T07:40:18;10.60;99.90
22974;DHT22;11653;50.848;4.584;2023-04-12T07:42:43;10.60;99.90
22974;DHT22;11653;50.848;4.584;2023-04-12T07:45:10;10.70;99.90
22974;DHT22;11653;50.848;4.584;2023-04-12T07:47:35;10.70;99.90
22974;DHT22;11653;50.848;4.584;2023-04-12T07:50:01;10.80;99.90
22974;DHT22;11653;50.848;4.584;2023-04-12T07:52:28;10.80;99.90
22974;DHT22;11653;50.848;4.584;2023-04-12T07:54:54;11.00;99.90
22974;DHT22;11653;50.848;4.584;2023-04-12T07:57:19;11.40;99.90
22974;DHT22;11653;50.848;4.584;2023-04-12T07:59:47;11.90;99.90
22974;DHT22;11653;50.848;4.584;2023-04-12T08:02:13;12.10;99.90
22974;DHT22;11653;50.848;4.584;2023-04-12T08:04:38;12.20;99.90
22974;DHT22;11653;50.848;4.584;2023-04-12T08:07:08;12.40;99.90
22974;DHT22;11653;50.848;4.584;2023-04-12T08:09:34;12.50;99.90
22974;DHT22;11653;50.848;4.584;2023-04-12T08:12:01;12.50;99.90
22974;DHT22;11653;50.848;4.584;2023-04-12T08:14:27;12.60;99.90
22974;DHT22;11653;50.848;4.584;2023-04-12T08:16:53;12.70;99.90
22974;DHT22;11653;50.848;4.584;2023-04-12T08:19:19;12.60;99.90
22974;DHT22;11653;50.848;4.584;2023-04-12T08:21:45;12.60;99.90
22974;DHT22;11653;50.848;4.584;2023-04-12T08:24:11;12.50;99.90
22974;DHT22;11653;50.848;4.584;2023-04-12T08:26:39;12.60;99.90
22974;DHT22;11653;50.848;4.584;2023-04-12T08:29:05;13.00;99.90
22974;DHT22;11653;50.848;4.584;2023-04-12T08:31:33;13.90;99.90
22974;DHT22;11653;50.848;4.584;2023-04-12T08:33:58;14.90;99.90
22974;DHT22;11653;50.848;4.584;2023-04-12T08:36:25;16.20;99.90
22974;DHT22;11653;50.848;4.584;2023-04-12T08:38:51;17.20;99.90
22974;DHT22;11653;50.848;4.584;2023-04-12T08:41:20;17.40;99.90
22974;DHT22;11653;50.848;4.584;2023-04-12T08:43:46;17.10;99.90
22974;DHT22;11653;50.848;4.584;2023-04-12T08:46:15;16.20;99.90
22974;DHT22;11653;50.848;4.584;2023-04-12T08:48:47;15.70;99.90
22974;DHT22;11653;50.848;4.584;2023-04-12T08:51:17;15.50;99.90
22974;DHT22;11653;50.848;4.584;2023-04-12T08:53:43;15.40;99.90
22974;DHT22;11653;50.848;4.584;2023-04-12T08:56:10;15.30;99.90
22974;DHT22;11653;50.848;4.584;2023-04-12T08:58:42;15.30;99.90
22974;DHT22;11653;50.848;4.584;2023-04-12T09:01:14;15.10;99.90
22974;DHT22;11653;50.848;4.584;2023-04-12T09:03:41;15.20;99.90
22974;DHT22;11653;50.848;4.584;2023-04-12T09:06:08;15.70;99.90
22974;DHT22;11653;50.848;4.584;2023-04-12T09:08:34;15.90;99.90
22974;DHT22;11653;50.848;4.584;2023-04-12T09:11:00;15.70;99.90
22974;DHT22;11653;50.848;4.584;2023-04-12T09:13:33;15.40;99.90
22974;DHT22;11653;50.848;4.584;2023-04-12T09:16:01;15.40;99.90
22974;DHT22;11653;50.848;4.584;2023-04-12T09:18:27;15.20;99.90
22974;DHT22;11653;50.848;4.584;2023-04-12T09:21:09;14.90;99.90
22974;DHT22;11653;50.848;4.584;2023-04-12T09:23:36;14.60;99.90
22974;DHT22;11653;50.848;4.584;2023-04-12T09:26:03;14.70;99.90
22974;DHT22;11653;50.848;4.584;2023-04-12T09:28:29;14.90;99.90
22974;DHT22;11653;50.848;4.584;2023-04-12T09:30:57;15.10;99.90
22974;DHT22;11653;50.848;4.584;2023-04-12T09:33:37;15.00;99.90
22974;DHT22;11653;50.848;4.584;2023-04-12T09:36:04;14.40;99.90
22974;DHT22;11653;50.848;4.584;2023-04-12T09:38:31;13.90;99.90
22974;DHT22;11653;50.848;4.584;2023-04-12T09:41:17;13.60;99.90
22974;DHT22;11653;50.848;4.584;2023-04-12T09:43:50;13.20;99.90
22974;DHT22;11653;50.848;4.584;2023-04-12T09:46:16;12.90;99.90
22974;DHT22;11653;50.848;4.584;2023-04-12T09:48:49;12.90;99.90
22974;DHT22;11653;50.848;4.584;2023-04-12T09:51:32;12.90;99.90
22974;DHT22;11653;50.848;4.584;2023-04-12T09:54:03;13.10;99.90
22974;DHT22;11653;50.848;4.584;2023-04-12T09:56:34;13.20;99.90
22974;DHT22;11653;50.848;4.584;2023-04-12T09:59:09;13.30;99.90
22974;DHT22;11653;50.848;4.584;2023-04-12T10:01:39;13.30;99.90
22974;DHT22;11653;50.848;4.584;2023-04-12T10:04:07;13.20;99.90
22974;DHT22;11653;50.848;4.584;2023-04-12T10:06:33;12.90;99.90
22974;DHT22;11653;50.848;4.584;2023-04-12T10:09:02;12.80;99.90
22974;DHT22;11653;50.848;4.584;2023-04-12T10:11:28;13.10;99.90
22974;DHT22;11653;50.848;4.584;2023-04-12T10:13:55;13.10;99.90
22974;DHT22;11653;50.848;4.584;2023-04-12T10:16:21;13.10;99.90
22974;DHT22;11653;50.848;4.584;2023-04-12T10:18:47;13.00;99.90
22974;DHT22;11653;50.848;4.584;2023-04-12T10:21:14;12.90;99.90
22974;DHT22;11653;50.848;4.584;2023-04-12T10:23:43;12.80;99.90
22974;DHT22;11653;50.848;4.584;2023-04-12T10:26:09;12.80;99.90
22974;DHT22;11653;50.848;4.584;2023-04-12T10:28:35;13.00;99.90
22974;DHT22;11653;50.848;4.584;2023-04-12T10:31:27;13.30;99.90
22974;DHT22;11653;50.848;4.584;2023-04-12T10:33:54;14.00;99.90
22974;DHT22;11653;50.848;4.584;2023-04-12T10:39:39;14.70;99.90
22974;DHT22;11653;50.848;4.584;2023-04-12T10:42:14;14.60;99.90
22974;DHT22;11653;50.848;4.584;2023-04-12T10:44:40;14.30;99.90
22974;DHT22;11653;50.848;4.584;2023-04-12T10:47:06;13.70;99.90
22974;DHT22;11653;50.848;4.584;2023-04-12T10:49:32;13.10;99.90
22974;DHT22;11653;50.848;4.584;2023-04-12T10:54:34;12.50;99.90
22974;DHT22;11653;50.848;4.584;2023-04-12T10:57:01;12.30;99.90
22974;DHT22;11653;50.848;4.584;2023-04-12T10:59:50;12.20;99.90
22974;DHT22;11653;50.848;4.584;2023-04-12T11:02:17;12.30;99.90
22974;DHT22;11653;50.848;4.584;2023-04-12T11:05:08;12.50;99.90
22974;DHT22;11653;50.848;4.584;2023-04-12T11:07:41;12.80;99.90
22974;DHT22;11653;50.848;4.584;2023-04-12T11:10:14;13.50;99.90
22974;DHT22;11653;50.848;4.584;2023-04-12T11:12:41;13.90;99.90
22974;DHT22;11653;50.848;4.584;2023-04-12T11:15:11;14.70;99.90
22974;DHT22;11653;50.848;4.584;2023-04-12T11:17:36;15.80;99.90
22974;DHT22;11653;50.848;4.584;2023-04-12T11:20:09;16.80;99.90
22974;DHT22;11653;50.848;4.584;2023-04-12T11:22:37;17.30;99.90
22974;DHT22;11653;50.848;4.584;2023-04-12T11:25:03;17.40;99.90
22974;DHT22;11653;50.848;4.584;2023-04-12T11:27:29;16.80;99.90
22974;DHT22;11653;50.848;4.584;2023-04-12T11:29:58;16.00;99.90
22974;DHT22;11653;50.848;4.584;2023-04-12T11:32:28;15.40;99.90
22974;DHT22;11653;50.848;4.584;2023-04-12T11:34:55;15.10;99.90
22974;DHT22;11653;50.848;4.584;2023-04-12T11:37:22;15.00;99.90
22974;DHT22;11653;50.848;4.584;2023-04-12T11:39:51;14.90;99.90
22974;DHT22;11653;50.848;4.584;2023-04-12T11:42:23;14.70;99.90
22974;DHT22;11653;50.848;4.584;2023-04-12T11:44:49;14.90;99.90
22974;DHT22;11653;50.848;4.584;2023-04-12T11:47:16;15.30;99.90
22974;DHT22;11653;50.848;4.584;2023-04-12T11:49:46;15.60;99.90
22974;DHT22;11653;50.848;4.584;2023-04-12T11:52:14;16.00;99.90
22974;DHT22;11653;50.848;4.584;2023-04-12T11:54:49;16.20;99.90
22974;DHT22;11653;50.848;4.584;2023-04-12T11:57:17;16.40;99.90
22974;DHT22;11653;50.848;4.584;2023-04-12T11:59:47;16.50;99.90
22974;DHT22;11653;50.848;4.584;2023-04-12T12:02:14;16.60;99.90
22974;DHT22;11653;50.848;4.584;2023-04-12T12:04:46;16.20;99.90
22974;DHT22;11653;50.848;4.584;2023-04-12T12:07:13;15.50;99.90
22974;DHT22;11653;50.848;4.584;2023-04-12T12:09:40;13.20;99.90
22974;DHT22;11653;50.848;4.584;2023-04-12T12:12:08;11.50;99.90
22974;DHT22;11653;50.848;4.584;2023-04-12T12:14:34;10.60;99.90
22974;DHT22;11653;50.848;4.584;2023-04-12T12:17:01;9.80;99.90
22974;DHT22;11653;50.848;4.584;2023-04-12T12:19:37;9.60;99.90
22974;DHT22;11653;50.848;4.584;2023-04-12T12:22:20;9.50;99.90
22974;DHT22;11653;50.848;4.584;2023-04-12T12:24:55;9.50;99.90
22974;DHT22;11653;50.848;4.584;2023-04-12T12:27:23;9.80;99.90
22974;DHT22;11653;50.848;4.584;2023-04-12T12:29:51;10.20;99.90
22974;DHT22;11653;50.848;4.584;2023-04-12T12:32:18;10.70;99.90
22974;DHT22;11653;50.848;4.584;2023-04-12T12:34:55;11.10;99.90
22974;DHT22;11653;50.848;4.584;2023-04-12T12:37:25;11.60;99.90
22974;DHT22;11653;50.848;4.584;2023-04-12T12:42:51;11.80;99.90
22974;DHT22;11653;50.848;4.584;2023-04-12T12:45:20;11.70;99.90
22974;DHT22;11653;50.848;4.584;2023-04-12T12:47:59;11.60;99.90
22974;DHT22;11653;50.848;4.584;2023-04-12T12:50:28;11.60;99.90
22974;DHT22;11653;50.848;4.584;2023-04-12T12:52:55;11.60;99.90
22974;DHT22;11653;50.848;4.584;2023-04-12T12:55:22;11.70;99.90
22974;DHT22;11653;50.848;4.584;2023-04-12T12:57:52;11.80;99.90
22974;DHT22;11653;50.848;4.584;2023-04-12T13:00:20;12.00;99.90
22974;DHT22;11653;50.848;4.584;2023-04-12T13:02:46;12.00;99.90
22974;DHT22;11653;50.848;4.584;2023-04-12T13:05:12;12.10;99.90
22974;DHT22;11653;50.848;4.584;2023-04-12T13:07:39;12.30;99.90
22974;DHT22;11653;50.848;4.584;2023-04-12T13:10:05;12.60;99.90
22974;DHT22;11653;50.848;4.584;2023-04-12T13:12:31;13.00;99.90
22974;DHT22;11653;50.848;4.584;2023-04-12T13:14:57;13.20;99.90
22974;DHT22;11653;50.848;4.584;2023-04-12T13:17:28;13.40;99.90
22974;DHT22;11653;50.848;4.584;2023-04-12T13:19:54;13.30;99.90
22974;DHT22;11653;50.848;4.584;2023-04-12T13:22:20;13.40;99.90
22974;DHT22;11653;50.848;4.584;2023-04-12T13:24:46;13.10;99.90
22974;DHT22;11653;50.848;4.584;2023-04-12T13:27:12;12.90;99.90
22974;DHT22;11653;50.848;4.584;2023-04-12T13:29:39;13.00;99.90
22974;DHT22;11653;50.848;4.584;2023-04-12T13:32:05;13.20;99.90
22974;DHT22;11653;50.848;4.584;2023-04-12T13:34:31;13.50;99.90
22974;DHT22;11653;50.848;4.584;2023-04-12T13:36:57;13.60;99.90
22974;DHT22;11653;50.848;4.584;2023-04-12T13:39:23;13.60;99.90
22974;DHT22;11653;50.848;4.584;2023-04-12T13:41:49;13.50;99.90
22974;DHT22;11653;50.848;4.584;2023-04-12T13:44:15;13.50;99.90
22974;DHT22;11653;50.848;4.584;2023-04-12T13:46:41;13.50;99.90
22974;DHT22;11653;50.848;4.584;2023-04-12T13:49:07;13.50;99.90
22974;DHT22;11653;50.848;4.584;2023-04-12T13:51:32;13.30;99.90
22974;DHT22;11653;50.848;4.584;2023-04-12T13:53:59;13.00;99.90
22974;DHT22;11653;50.848;4.584;2023-04-12T13:56:24;12.90;99.90
22974;DHT22;11653;50.848;4.584;2023-04-12T13:58:50;12.80;99.90
22974;DHT22;11653;50.848;4.584;2023-04-12T14:01:16;12.80;99.90
22974;DHT22;11653;50.848;4.584;2023-04-12T14:03:42;12.80;99.90
22974;DHT22;11653;50.848;4.584;2023-04-12T14:06:08;12.70;99.90
22974;DHT22;11653;50.848;4.584;2023-04-12T14:08:34;12.40;99.90
22974;DHT22;11653;50.848;4.584;2023-04-12T14:11:02;12.10;99.90
22974;DHT22;11653;50.848;4.584;2023-04-12T14:13:28;11.20;99.90
22974;DHT22;11653;50.848;4.584;2023-04-12T14:15:54;10.60;99.90
22974;DHT22;11653;50.848;4.584;2023-04-12T14:18:20;10.50;99.90
22974;DHT22;11653;50.848;4.584;2023-04-12T14:20:50;10.50;99.90
22974;DHT22;11653;50.848;4.584;2023-04-12T14:23:20;10.50;99.90
22974;DHT22;11653;50.848;4.584;2023-04-12T14:25:52;10.60;99.90
22974;DHT22;11653;50.848;4.584;2023-04-12T14:28:18;10.80;99.90
22974;DHT22;11653;50.848;4.584;2023-04-12T14:30:46;11.00;99.90
22974;DHT22;11653;50.848;4.584;2023-04-12T14:33:15;11.20;99.90
22974;DHT22;11653;50.848;4.584;2023-04-12T14:35:41;11.60;99.90
22974;DHT22;11653;50.848;4.584;2023-04-12T14:38:07;11.90;99.90
22974;DHT22;11653;50.848;4.584;2023-04-12T14:40:34;12.20;99.90
22974;DHT22;11653;50.848;4.584;2023-04-12T14:42:59;12.60;99.90
22974;DHT22;11653;50.848;4.584;2023-04-12T14:45:25;12.90;99.90
22974;DHT22;11653;50.848;4.584;2023-04-12T14:47:52;13.10;99.90
22974;DHT22;11653;50.848;4.584;2023-04-12T14:50:18;13.30;99.90
22974;DHT22;11653;50.848;4.584;2023-04-12T14:52:44;13.40;99.90
22974;DHT22;11653;50.848;4.584;2023-04-12T14:55:10;13.40;99.90
22974;DHT22;11653;50.848;4.584;2023-04-12T14:57:37;13.40;99.90
22974;DHT22;11653;50.848;4.584;2023-04-12T15:00:04;13.40;99.90
22974;DHT22;11653;50.848;4.584;2023-04-12T15:02:37;13.40;99.90
22974;DHT22;11653;50.848;4.584;2023-04-12T15:05:03;13.50;99.90
22974;DHT22;11653;50.848;4.584;2023-04-12T15:07:31;13.70;99.90
22974;DHT22;11653;50.848;4.584;2023-04-12T15:09:57;13.70;99.90
22974;DHT22;11653;50.848;4.584;2023-04-12T15:12:24;13.60;99.90
22974;DHT22;11653;50.848;4.584;2023-04-12T15:14:50;13.50;99.90
22974;DHT22;11653;50.848;4.584;2023-04-12T15:17:18;13.60;99.90
22974;DHT22;11653;50.848;4.584;2023-04-12T15:19:44;13.70;99.90
22974;DHT22;11653;50.848;4.584;2023-04-12T15:22:09;13.70;99.90
22974;DHT22;11653;50.848;4.584;2023-04-12T15:24:35;13.80;99.90
22974;DHT22;11653;50.848;4.584;2023-04-12T15:27:01;13.80;99.90
22974;DHT22;11653;50.848;4.584;2023-04-12T15:29:27;13.60;99.90
22974;DHT22;11653;50.848;4.584;2023-04-12T15:31:52;13.60;99.90
22974;DHT22;11653;50.848;4.584;2023-04-12T15:34:20;13.60;99.90
22974;DHT22;11653;50.848;4.584;2023-04-12T15:36:48;13.50;99.90
22974;DHT22;11653;50.848;4.584;2023-04-12T15:39:13;13.30;99.90
22974;DHT22;11653;50.848;4.584;2023-04-12T15:41:40;13.30;99.90
22974;DHT22;11653;50.848;4.584;2023-04-12T15:44:08;13.20;99.90
22974;DHT22;11653;50.848;4.584;2023-04-12T15:46:34;13.10;99.90
22974;DHT22;11653;50.848;4.584;2023-04-12T15:49:00;13.00;99.90
22974;DHT22;11653;50.848;4.584;2023-04-12T15:51:28;12.80;99.90
22974;DHT22;11653;50.848;4.584;2023-04-12T15:53:54;12.90;99.90
22974;DHT22;11653;50.848;4.584;2023-04-12T15:56:20;12.90;99.90
22974;DHT22;11653;50.848;4.584;2023-04-12T15:58:58;13.00;99.90